createdAt,value
2022-10-31T17:02:04.381Z,62.67
2022-10-31T17:03:36.569Z,63.00
2022-10-31T17:05:11.980Z,63.20
2022-10-31T17:06:43.683Z,63.00
2022-10-31T17:08:15.332Z,63.00
2022-10-31T17:09:47.085Z,68.60
2022-10-31T17:11:20.257Z,63.80
2022-10-31T17:12:52.273Z,62.60
2022-10-31T17:14:24.024Z,61.40
2022-10-31T17:15:57.062Z,64.80
2022-10-31T17:17:28.831Z,58.60
2022-10-31T17:19:00.601Z,58.80
2022-10-31T17:20:32.480Z,60.40
2022-10-31T17:22:04.205Z,57.80
2022-10-31T17:23:36.925Z,56.20
2022-10-31T17:25:11.069Z,45.00
2022-10-31T17:26:42.845Z,54.40
2022-10-31T17:28:14.773Z,65.60
2022-10-31T17:29:46.511Z,63.00
2022-10-31T17:31:28.787Z,70.80
2022-10-31T17:33:01.313Z,66.60
2022-10-31T17:34:33.842Z,72.00
2022-10-31T17:36:06.014Z,62.00
2022-10-31T17:37:37.741Z,63.20
2022-10-31T17:39:09.742Z,63.20
2022-10-31T17:40:42.416Z,64.60
2022-10-31T17:42:14.174Z,63.60
2022-10-31T17:43:45.885Z,67.20
2022-10-31T17:45:18.037Z,60.60
2022-10-31T17:46:50.395Z,65.60
2022-10-31T17:48:22.092Z,63.00
2022-10-31T17:49:53.834Z,62.80
2022-10-31T17:51:25.533Z,61.60
2022-10-31T17:52:58.430Z,61.60
2022-10-31T17:54:30.309Z,65.20
2022-10-31T17:56:08.870Z,64.20
2022-10-31T17:57:40.692Z,67.00
2022-10-31T17:59:12.375Z,70.00
2022-10-31T18:00:47.241Z,59.60
2022-10-31T18:02:22.448Z,64.00
2022-10-31T18:03:54.225Z,65.20
2022-10-31T18:05:26.050Z,63.60
2022-10-31T18:06:57.767Z,63.20
2022-10-31T18:08:31.086Z,68.60
2022-10-31T18:10:02.901Z,64.80
2022-10-31T18:11:34.662Z,71.60
2022-10-31T18:13:06.431Z,62.80
2022-10-31T18:14:38.173Z,63.40
2022-10-31T18:16:11.152Z,60.40
2022-10-31T18:17:42.847Z,70.60
2022-10-31T18:19:16.111Z,72.75
2022-10-31T18:20:47.854Z,64.80
2022-10-31T18:22:19.614Z,70.20
2022-10-31T18:23:55.960Z,68.00
2022-10-31T18:25:27.797Z,67.40
2022-10-31T18:26:59.519Z,51.40
2022-10-31T18:28:31.306Z,69.00
2022-10-31T18:30:03.097Z,72.40
2022-10-31T18:31:34.888Z,67.00
2022-10-31T18:33:06.564Z,70.20
2022-10-31T18:34:38.224Z,70.40
2022-10-31T18:36:10.110Z,71.75
2022-10-31T18:37:41.757Z,69.20
2022-10-31T18:39:14.063Z,80.50
2022-10-31T18:40:45.844Z,251.67
2022-10-31T18:42:18.348Z,342.25
2022-10-31T18:43:50.067Z,349.25
2022-10-31T18:45:33.824Z,316.00
2022-10-31T18:47:13.612Z,317.50
2022-10-31T18:48:45.718Z,210.00
2022-10-31T18:50:17.516Z,188.25
2022-10-31T18:51:50.256Z,188.75
2022-10-31T18:53:22.022Z,161.00
2022-10-31T18:54:53.712Z,167.25
2022-10-31T18:56:25.629Z,160.25
2022-10-31T18:57:57.330Z,169.50
2022-10-31T18:59:29.042Z,180.75
2022-10-31T19:01:00.901Z,184.75
2022-10-31T19:02:32.754Z,180.00
2022-10-31T19:04:04.786Z,179.25
2022-10-31T19:05:36.525Z,172.50
2022-10-31T19:07:08.627Z,190.25
2022-10-31T19:08:40.895Z,199.00
2022-10-31T19:10:12.607Z,187.50
2022-10-31T19:11:44.292Z,190.00
2022-10-31T19:13:15.950Z,185.25
2022-10-31T19:14:49.003Z,185.75
2022-10-31T19:16:20.806Z,231.33
2022-10-31T19:17:52.914Z,258.00
2022-10-31T19:19:24.658Z,199.67
2022-10-31T19:20:56.339Z,202.50
2022-10-31T19:22:31.116Z,191.50
2022-10-31T19:24:03.015Z,185.00
2022-10-31T19:25:34.763Z,166.25
2022-10-31T19:27:06.622Z,186.00
2022-10-31T19:28:39.358Z,190.75
2022-10-31T19:30:11.793Z,178.75
2022-10-31T19:31:43.522Z,189.00
2022-10-31T19:33:15.586Z,191.00
2022-10-31T19:34:47.267Z,171.50
2022-10-31T19:36:19.723Z,183.00
2022-10-31T19:37:51.444Z,180.75
2022-10-31T19:39:23.194Z,175.75
2022-10-31T19:41:07.055Z,165.00
2022-10-31T19:42:38.728Z,164.25
2022-10-31T19:44:13.231Z,175.75
2022-10-31T19:45:55.315Z,158.00
2022-10-31T19:47:26.973Z,144.50
2022-10-31T19:48:59.089Z,158.25
2022-10-31T19:50:30.834Z,156.25
2022-10-31T19:52:02.586Z,146.75
2022-10-31T19:53:34.451Z,144.75
2022-10-31T19:55:06.518Z,149.50
2022-10-31T19:56:39.600Z,140.50
2022-10-31T19:58:11.716Z,146.00
2022-10-31T19:59:43.651Z,139.00
2022-10-31T20:01:22.308Z,137.50
2022-10-31T20:02:54.018Z,127.50
2022-10-31T20:04:25.823Z,129.00
2022-10-31T20:05:57.457Z,125.00
2022-10-31T20:07:29.147Z,123.00
2022-10-31T20:09:02.141Z,120.60
2022-10-31T20:10:33.788Z,119.00
2022-10-31T20:12:05.798Z,161.00
2022-10-31T20:13:37.570Z,132.60
2022-10-31T20:15:09.655Z,114.80
2022-10-31T20:16:44.148Z,107.25
2022-10-31T20:18:16.215Z,114.80
2022-10-31T20:19:48.234Z,102.25
2022-10-31T20:21:22.526Z,99.75
2022-10-31T20:22:54.217Z,91.25
2022-10-31T20:24:26.107Z,95.25
2022-10-31T20:25:57.813Z,92.50
2022-10-31T20:27:29.648Z,82.50
2022-10-31T20:29:01.624Z,89.25
2022-10-31T20:30:36.971Z,90.25
2022-10-31T20:32:08.700Z,80.25
2022-10-31T20:33:41.007Z,367.25
2022-10-31T20:35:12.912Z,269.75
2022-10-31T20:36:44.648Z,211.67
2022-10-31T20:38:16.409Z,202.50
2022-10-31T20:39:50.366Z,165.75
2022-10-31T20:41:24.423Z,143.75
2022-10-31T20:42:56.167Z,156.00
2022-10-31T20:44:27.939Z,134.00
2022-10-31T20:46:04.396Z,144.00
2022-10-31T20:47:36.135Z,115.60
2022-10-31T20:49:08.104Z,114.20
2022-10-31T20:50:39.761Z,110.20
2022-10-31T20:52:11.448Z,116.60
2022-10-31T20:53:43.193Z,113.20
2022-10-31T20:55:14.896Z,111.40
2022-10-31T20:56:46.653Z,109.60
2022-10-31T20:58:18.282Z,117.60
2022-10-31T20:59:50.196Z,117.20
2022-10-31T21:01:29.495Z,104.20
2022-10-31T21:03:01.639Z,118.20
2022-10-31T21:04:33.559Z,104.20
2022-10-31T21:06:05.522Z,123.80
2022-10-31T21:07:37.750Z,112.60
2022-10-31T21:09:09.464Z,107.60
2022-10-31T21:10:41.107Z,104.00
2022-10-31T21:12:12.858Z,115.40
2022-10-31T21:13:45.193Z,106.80
2022-10-31T21:15:16.888Z,101.25
2022-10-31T21:16:49.327Z,105.75
2022-10-31T21:18:21.423Z,92.75
2022-10-31T21:19:53.085Z,94.50
2022-10-31T21:21:29.011Z,93.75
2022-10-31T21:23:03.845Z,91.50
2022-10-31T21:24:35.906Z,97.25
2022-10-31T21:26:08.365Z,97.25
2022-10-31T21:27:40.153Z,90.00
2022-10-31T21:29:12.587Z,93.25
2022-10-31T21:30:46.092Z,79.75
2022-10-31T21:32:17.756Z,90.00
2022-10-31T21:33:49.740Z,86.50
2022-10-31T21:35:21.791Z,95.25
2022-10-31T21:36:53.504Z,92.25
2022-10-31T21:38:25.383Z,92.00
2022-10-31T21:39:57.088Z,105.25
2022-10-31T21:41:28.828Z,89.75
2022-10-31T21:43:00.814Z,89.50
2022-10-31T21:44:33.689Z,103.75
2022-10-31T21:46:06.032Z,98.25
2022-10-31T21:47:37.699Z,92.25
2022-10-31T21:49:10.114Z,92.00
2022-10-31T21:50:41.997Z,95.25
2022-10-31T21:52:13.872Z,88.75
2022-10-31T21:54:04.520Z,83.00
2022-10-31T21:55:36.248Z,88.00
2022-10-31T21:57:07.931Z,91.50
2022-10-31T21:58:39.779Z,96.25
2022-10-31T22:00:12.367Z,93.25
2022-10-31T22:01:44.264Z,87.25
2022-10-31T22:03:16.134Z,87.50
2022-10-31T22:04:50.184Z,84.50
2022-10-31T22:06:22.297Z,85.75
2022-10-31T22:07:54.092Z,85.75
2022-10-31T22:09:25.812Z,90.00
2022-10-31T22:10:57.963Z,89.75
2022-10-31T22:12:29.882Z,89.00
2022-10-31T22:14:01.908Z,91.50
2022-10-31T22:15:33.674Z,90.25
2022-10-31T22:17:05.483Z,97.00
2022-10-31T22:18:37.491Z,89.50
2022-10-31T22:20:09.587Z,84.75
2022-10-31T22:21:46.599Z,95.50
2022-10-31T22:23:18.341Z,79.50
2022-10-31T22:24:50.242Z,94.00
2022-10-31T22:26:22.156Z,88.75
2022-10-31T22:27:53.942Z,89.25
2022-10-31T22:29:28.836Z,82.50
2022-10-31T22:31:06.709Z,89.50
2022-10-31T22:32:38.503Z,88.25
2022-10-31T22:34:10.386Z,87.25
2022-10-31T22:35:42.065Z,93.25
2022-10-31T22:37:17.339Z,87.75
2022-10-31T22:38:51.470Z,88.75
2022-10-31T22:40:23.370Z,92.25
2022-10-31T22:41:55.107Z,114.60
2022-10-31T22:43:26.856Z,94.25
2022-10-31T22:45:01.670Z,94.50
2022-10-31T22:46:37.652Z,94.25
2022-10-31T22:48:09.468Z,102.50
2022-10-31T22:49:41.224Z,97.80
2022-10-31T22:51:14.636Z,101.80
2022-10-31T22:52:46.340Z,124.75
2022-10-31T22:54:18.361Z,120.50
2022-10-31T22:55:50.396Z,118.00
2022-10-31T22:57:22.074Z,181.00
2022-10-31T22:58:53.983Z,179.25
2022-10-31T23:00:25.665Z,160.50
2022-10-31T23:01:57.525Z,174.75
2022-10-31T23:03:29.507Z,152.50
2022-10-31T23:05:01.222Z,154.75
2022-10-31T23:06:33.077Z,160.50
2022-10-31T23:08:05.193Z,159.50
2022-10-31T23:09:37.034Z,158.50
2022-10-31T23:11:37.619Z,146.25
2022-10-31T23:13:27.993Z,154.00
2022-10-31T23:14:59.732Z,155.50
2022-10-31T23:16:31.490Z,152.00
2022-10-31T23:18:03.620Z,146.50
2022-10-31T23:19:36.183Z,147.50
2022-10-31T23:21:08.248Z,145.25
2022-10-31T23:22:40.844Z,148.00
2022-10-31T23:24:12.802Z,157.50
2022-10-31T23:26:03.387Z,169.25
2022-10-31T23:27:35.195Z,167.50
2022-10-31T23:29:06.935Z,177.00
2022-10-31T23:30:38.924Z,172.75
2022-10-31T23:32:16.585Z,183.50
2022-10-31T23:33:48.400Z,172.75
